Time;durP1;ratioP1;P1;durP2;ratioP2;P2;SDS_P1;SDS_P2;PMS_P1;PMS_P2;Temp;Humidity;BMP_temperature;BMP_pressure;BME280_temperature;BME280_humidity;BME280_pressure;Samples;Min_cycle;Max_cycle;Signal;HPM_P1;HPM_P2
2022/10/12 00:01:27;;;;;;;;;;;17.00;88.40;;;;;;5112848;28;19915;-73
2022/10/12 00:03:54;;;;;;;;;;;17.00;88.50;;;;;;5112252;28;19908;-73
2022/10/12 00:06:21;;;;;;;;;;;17.00;87.50;;;;;;5112777;28;20016;-74
2022/10/12 00:08:48;;;;;;;;;;;17.00;87.10;;;;;;5112691;28;19908;-73
2022/10/12 00:11:22;;;;;;;;;;;17.00;87.20;;;;;;5112862;28;19908;-73
2022/10/12 00:13:48;;;;;;;;;;;17.10;87.70;;;;;;5112215;28;19915;-73
2022/10/12 00:16:15;;;;;;;;;;;17.00;88.00;;;;;;5112449;28;19904;-73
2022/10/12 00:18:42;;;;;;;;;;;17.00;88.20;;;;;;5112593;28;20384;-73
2022/10/12 00:21:10;;;;;;;;;;;17.00;88.20;;;;;;5112181;28;20002;-73
2022/10/12 00:23:37;;;;;;;;;;;17.00;88.40;;;;;;5112632;28;19908;-73
2022/10/12 00:26:05;;;;;;;;;;;17.00;88.60;;;;;;5112353;28;20289;-73
2022/10/12 00:28:31;;;;;;;;;;;16.90;88.70;;;;;;5112427;28;19908;-73
2022/10/12 00:30:58;;;;;;;;;;;16.90;88.70;;;;;;5112937;28;19937;-73
2022/10/12 00:33:26;;;;;;;;;;;16.90;88.80;;;;;;5112227;28;19969;-73
2022/10/12 00:35:53;;;;;;;;;;;16.90;88.70;;;;;;5112535;28;19908;-73
2022/10/12 00:38:21;;;;;;;;;;;16.80;88.80;;;;;;5115385;28;19980;-73
2022/10/12 00:40:47;;;;;;;;;;;16.80;88.60;;;;;;5116250;28;20370;-73
2022/10/12 00:43:27;;;;;;;;;;;16.80;88.50;;;;;;5116206;28;19998;-73
2022/10/12 00:45:54;;;;;;;;;;;16.80;88.60;;;;;;5116168;28;19907;-73
2022/10/12 00:48:21;;;;;;;;;;;16.80;88.70;;;;;;5115797;28;20290;-73
2022/10/12 00:50:47;;;;;;;;;;;16.80;88.40;;;;;;5114991;28;19914;-73
2022/10/12 00:53:15;;;;;;;;;;;16.80;88.10;;;;;;5115936;28;20327;-73
2022/10/12 00:55:47;;;;;;;;;;;16.80;87.40;;;;;;5116024;28;20365;-73
2022/10/12 00:58:13;;;;;;;;;;;16.80;87.20;;;;;;5116141;28;19920;-73
2022/10/12 01:00:40;;;;;;;;;;;16.80;87.10;;;;;;5114637;28;20384;-74
2022/10/12 01:03:07;;;;;;;;;;;17.00;87.40;;;;;;5114495;28;20365;-73
2022/10/12 01:05:34;;;;;;;;;;;16.90;86.00;;;;;;5115657;28;19908;-73
2022/10/12 01:08:01;;;;;;;;;;;17.00;86.50;;;;;;5114718;28;19911;-73
2022/10/12 01:10:28;;;;;;;;;;;17.10;86.80;;;;;;5115519;28;19907;-73
2022/10/12 01:12:55;;;;;;;;;;;17.20;87.40;;;;;;5115929;28;19908;-74
2022/10/12 01:15:21;;;;;;;;;;;17.20;87.00;;;;;;5115457;28;19912;-73
2022/10/12 01:17:48;;;;;;;;;;;17.10;86.80;;;;;;5114202;28;20006;-73
2022/10/12 01:20:33;;;;;;;;;;;17.20;87.20;;;;;;5115299;28;19927;-73
2022/10/12 01:23:23;;;;;;;;;;;17.20;86.90;;;;;;5101610;28;19919;-73
2022/10/12 01:26:12;;;;;;;;;;;17.20;86.90;;;;;;5115289;28;19923;-73
2022/10/12 01:28:39;;;;;;;;;;;17.20;86.80;;;;;;5114113;28;19907;-73
2022/10/12 01:31:23;;;;;;;;;;;17.30;85.40;;;;;;5115213;28;19908;-73
2022/10/12 01:33:53;;;;;;;;;;;17.40;86.10;;;;;;5102401;28;19907;-73
2022/10/12 01:36:37;;;;;;;;;;;17.50;85.60;;;;;;5115267;28;19908;-73
2022/10/12 01:39:04;;;;;;;;;;;17.70;85.70;;;;;;5115058;28;19923;-73
2022/10/12 01:41:36;;;;;;;;;;;17.80;84.70;;;;;;5115149;28;20263;-73
2022/10/12 01:44:03;;;;;;;;;;;18.00;82.80;;;;;;5114052;28;20344;-73
2022/10/12 01:46:29;;;;;;;;;;;18.00;82.10;;;;;;5115001;28;19908;-73
2022/10/12 01:48:57;;;;;;;;;;;18.20;80.20;;;;;;5114004;28;19914;-73
2022/10/12 01:51:44;;;;;;;;;;;18.20;80.60;;;;;;5113723;28;19958;-73
2022/10/12 01:54:19;;;;;;;;;;;18.30;81.30;;;;;;5114748;28;19920;-73
2022/10/12 01:56:52;;;;;;;;;;;18.40;80.50;;;;;;5113579;28;19908;-73
2022/10/12 01:59:30;;;;;;;;;;;18.40;79.50;;;;;;5114344;28;20011;-73
2022/10/12 02:02:02;;;;;;;;;;;18.50;79.80;;;;;;5113346;28;19946;-73
2022/10/12 02:04:37;;;;;;;;;;;18.50;78.60;;;;;;5114736;28;19915;-73
2022/10/12 02:07:05;;;;;;;;;;;18.40;78.30;;;;;;5113340;28;19914;-73
2022/10/12 02:09:32;;;;;;;;;;;18.40;78.10;;;;;;5113602;28;19912;-73
2022/10/12 02:12:04;;;;;;;;;;;18.40;79.20;;;;;;5113512;28;19968;-73
2022/10/12 02:14:40;;;;;;;;;;;18.40;77.60;;;;;;5113477;28;20004;-73
2022/10/12 02:17:07;;;;;;;;;;;18.40;78.40;;;;;;5113368;28;19908;-73
2022/10/12 02:19:39;;;;;;;;;;;18.50;77.10;;;;;;5113062;28;20282;-73
2022/10/12 02:22:06;;;;;;;;;;;18.40;77.30;;;;;;5092808;28;20400;-72
2022/10/12 02:24:32;;;;;;;;;;;18.30;77.60;;;;;;5112995;28;19908;-73
2022/10/12 02:26:59;;;;;;;;;;;18.30;77.30;;;;;;5113131;28;20429;-73
2022/10/12 02:29:30;;;;;;;;;;;18.40;77.70;;;;;;5113948;28;19996;-73
2022/10/12 02:32:00;;;;;;;;;;;18.30;77.40;;;;;;5113080;28;19915;-73
2022/10/12 02:34:31;;;;;;;;;;;18.40;78.70;;;;;;5114275;28;19907;-74
2022/10/12 02:37:02;;;;;;;;;;;18.30;78.60;;;;;;5112813;28;19908;-73
2022/10/12 02:39:30;;;;;;;;;;;18.30;78.40;;;;;;5112796;28;19916;-73
2022/10/12 02:41:58;;;;;;;;;;;18.30;79.00;;;;;;5113805;28;19915;-73
2022/10/12 02:44:26;;;;;;;;;;;18.30;79.00;;;;;;5112867;28;19907;-73
2022/10/12 02:46:52;;;;;;;;;;;18.30;79.40;;;;;;5114102;28;19965;-73
2022/10/12 02:49:19;;;;;;;;;;;18.30;79.40;;;;;;5113763;28;19965;-73
2022/10/12 02:51:46;;;;;;;;;;;18.30;78.90;;;;;;5113896;28;19985;-73
2022/10/12 02:54:12;;;;;;;;;;;18.30;79.10;;;;;;5113599;28;20376;-73
2022/10/12 02:56:43;;;;;;;;;;;18.30;78.50;;;;;;5113654;28;19977;-73
2022/10/12 02:59:10;;;;;;;;;;;18.30;78.50;;;;;;5113391;28;19938;-73
2022/10/12 03:01:37;;;;;;;;;;;18.30;78.30;;;;;;5112815;28;19907;-73
2022/10/12 03:04:04;;;;;;;;;;;18.30;78.10;;;;;;5112457;28;19908;-73
2022/10/12 03:06:31;;;;;;;;;;;18.30;78.10;;;;;;5113220;28;20342;-73
2022/10/12 03:08:57;;;;;;;;;;;18.40;78.10;;;;;;5112127;28;19912;-73
2022/10/12 03:11:24;;;;;;;;;;;18.40;77.50;;;;;;5113443;28;19955;-73
2022/10/12 03:13:54;;;;;;;;;;;18.40;78.20;;;;;;5113292;28;19912;-73
2022/10/12 03:16:21;;;;;;;;;;;18.40;77.50;;;;;;5113109;28;19908;-73
2022/10/12 03:18:47;;;;;;;;;;;18.40;77.70;;;;;;5112016;28;19962;-73
2022/10/12 03:21:14;;;;;;;;;;;18.40;77.60;;;;;;5112915;28;20365;-73
2022/10/12 03:23:40;;;;;;;;;;;18.40;78.30;;;;;;5113318;28;19911;-73
2022/10/12 03:26:07;;;;;;;;;;;18.50;77.80;;;;;;5113199;28;20307;-73
2022/10/12 03:28:34;;;;;;;;;;;18.40;79.10;;;;;;5113193;28;19907;-73
2022/10/12 03:31:01;;;;;;;;;;;18.40;77.10;;;;;;5113184;28;19904;-73
2022/10/12 03:33:27;;;;;;;;;;;18.40;77.80;;;;;;5112920;28;19912;-73
2022/10/12 03:35:54;;;;;;;;;;;18.40;77.80;;;;;;5112985;28;19908;-73
2022/10/12 03:38:21;;;;;;;;;;;18.40;76.90;;;;;;5111320;28;20365;-73
2022/10/12 03:40:47;;;;;;;;;;;18.40;76.90;;;;;;5113019;28;19915;-73
2022/10/12 03:43:14;;;;;;;;;;;18.50;77.70;;;;;;5112657;28;20397;-73
2022/10/12 03:45:40;;;;;;;;;;;18.50;77.60;;;;;;5112921;28;19912;-73
2022/10/12 03:48:07;;;;;;;;;;;18.50;77.80;;;;;;5112808;28;19961;-73
2022/10/12 03:50:34;;;;;;;;;;;18.50;77.40;;;;;;5112421;28;19907;-73
2022/10/12 03:53:01;;;;;;;;;;;18.60;77.50;;;;;;5112749;28;20362;-72
2022/10/12 03:55:28;;;;;;;;;;;18.60;76.40;;;;;;5112522;28;19912;-73
2022/10/12 03:57:55;;;;;;;;;;;18.60;74.90;;;;;;5112767;28;19961;-73
2022/10/12 04:00:21;;;;;;;;;;;18.60;76.00;;;;;;5112463;28;19911;-73
2022/10/12 04:02:48;;;;;;;;;;;18.70;75.90;;;;;;5112669;28;19930;-73
2022/10/12 04:05:15;;;;;;;;;;;18.70;75.90;;;;;;5112308;28;19908;-73
2022/10/12 04:07:41;;;;;;;;;;;18.70;74.90;;;;;;5112496;28;19915;-73
2022/10/12 04:10:08;;;;;;;;;;;18.70;74.50;;;;;;5112640;28;19908;-73
2022/10/12 04:12:35;;;;;;;;;;;18.70;75.00;;;;;;5114666;28;19915;-73
2022/10/12 04:15:01;;;;;;;;;;;18.70;74.20;;;;;;5116605;28;19912;-73
2022/10/12 04:17:28;;;;;;;;;;;18.70;74.20;;;;;;5116236;28;19912;-73
2022/10/12 04:19:55;;;;;;;;;;;18.70;74.90;;;;;;5116381;28;19969;-73
2022/10/12 04:22:23;;;;;;;;;;;18.70;74.90;;;;;;5116543;28;19907;-73
2022/10/12 04:24:50;;;;;;;;;;;18.70;74.30;;;;;;5116473;28;20377;-73
2022/10/12 04:27:16;;;;;;;;;;;18.60;74.80;;;;;;5116632;28;20011;-73
2022/10/12 04:29:43;;;;;;;;;;;18.70;75.20;;;;;;5116282;28;19987;-73
2022/10/12 04:32:10;;;;;;;;;;;18.70;75.00;;;;;;5116310;28;19912;-73
2022/10/12 04:34:37;;;;;;;;;;;18.70;76.00;;;;;;5116564;28;20003;-73
2022/10/12 04:37:03;;;;;;;;;;;18.70;76.20;;;;;;5116607;28;19908;-73
2022/10/12 04:39:30;;;;;;;;;;;18.70;76.40;;;;;;5115948;28;19916;-73
2022/10/12 04:41:57;;;;;;;;;;;18.70;76.50;;;;;;5115994;28;19915;-73
2022/10/12 04:44:23;;;;;;;;;;;18.70;76.50;;;;;;5116249;28;20328;-73
2022/10/12 04:46:50;;;;;;;;;;;18.80;76.70;;;;;;5116060;28;19919;-73
2022/10/12 04:49:17;;;;;;;;;;;18.70;76.50;;;;;;5115941;28;19907;-73
2022/10/12 04:51:43;;;;;;;;;;;18.70;77.00;;;;;;5115851;28;19908;-73
2022/10/12 04:54:10;;;;;;;;;;;18.80;77.40;;;;;;5115985;28;19957;-73
2022/10/12 04:56:37;;;;;;;;;;;18.80;77.00;;;;;;5116047;28;20349;-73
2022/10/12 04:59:04;;;;;;;;;;;18.80;76.70;;;;;;5115888;28;19920;-73
2022/10/12 05:01:30;;;;;;;;;;;18.80;76.30;;;;;;5116197;28;20388;-74
2022/10/12 05:03:59;;;;;;;;;;;18.80;76.80;;;;;;5115918;28;19912;-73
2022/10/12 05:06:25;;;;;;;;;;;18.80;75.80;;;;;;5115862;28;19914;-73
2022/10/12 05:08:52;;;;;;;;;;;18.70;75.50;;;;;;5115635;28;19908;-74
2022/10/12 05:11:19;;;;;;;;;;;18.70;75.70;;;;;;5115651;28;19907;-73
2022/10/12 05:13:45;;;;;;;;;;;18.70;75.30;;;;;;5106180;28;20366;-72
2022/10/12 05:16:12;;;;;;;;;;;18.70;74.90;;;;;;5115021;28;19918;-76
2022/10/12 05:18:38;;;;;;;;;;;18.80;74.70;;;;;;5114242;28;19970;-74
2022/10/12 05:21:05;;;;;;;;;;;18.70;72.80;;;;;;5113330;28;19924;-75
2022/10/12 05:23:32;;;;;;;;;;;18.70;73.10;;;;;;5114391;28;19959;-74
2022/10/12 05:25:58;;;;;;;;;;;18.70;72.90;;;;;;5115231;28;19908;-73
2022/10/12 05:28:25;;;;;;;;;;;18.70;73.40;;;;;;5113664;28;19912;-73
2022/10/12 05:30:52;;;;;;;;;;;18.70;72.30;;;;;;5109317;28;19947;-73
2022/10/12 05:33:18;;;;;;;;;;;18.70;73.10;;;;;;5106364;28;19912;-77
2022/10/12 05:35:47;;;;;;;;;;;18.70;73.30;;;;;;5114170;28;19911;-76
2022/10/12 05:38:13;;;;;;;;;;;18.70;72.90;;;;;;5112525;28;20347;-73
2022/10/12 05:40:40;;;;;;;;;;;18.60;73.30;;;;;;5115071;28;19918;-76
2022/10/12 05:43:07;;;;;;;;;;;18.60;73.30;;;;;;5114968;28;19919;-81
2022/10/12 05:45:33;;;;;;;;;;;18.60;72.70;;;;;;5097864;28;19912;-79
2022/10/12 05:48:00;;;;;;;;;;;18.60;73.00;;;;;;5106966;28;19911;-73
2022/10/12 05:50:27;;;;;;;;;;;18.60;72.30;;;;;;5108357;28;19974;-73
2022/10/12 05:52:53;;;;;;;;;;;18.60;71.70;;;;;;5095011;28;20002;-75
2022/10/12 05:55:20;;;;;;;;;;;18.60;72.40;;;;;;5094008;28;20324;-75
2022/10/12 05:57:48;;;;;;;;;;;18.60;72.40;;;;;;5094100;28;19920;-76
2022/10/12 06:00:15;;;;;;;;;;;18.60;72.40;;;;;;5094044;28;19912;-73
2022/10/12 06:02:42;;;;;;;;;;;18.60;72.20;;;;;;5098015;28;19918;-74
2022/10/12 06:05:08;;;;;;;;;;;18.50;72.30;;;;;;5094377;28;20385;-73
2022/10/12 06:07:35;;;;;;;;;;;18.50;72.20;;;;;;5094173;28;19912;-74
2022/10/12 06:10:02;;;;;;;;;;;18.50;72.40;;;;;;5094155;28;19920;-73
2022/10/12 06:12:28;;;;;;;;;;;18.50;71.70;;;;;;5093935;28;20395;-73
2022/10/12 06:14:55;;;;;;;;;;;18.50;72.10;;;;;;5094033;28;19908;-74
2022/10/12 06:17:22;;;;;;;;;;;18.50;72.00;;;;;;5093666;28;19911;-74
2022/10/12 06:19:48;;;;;;;;;;;18.40;72.40;;;;;;5100668;28;20370;-74
2022/10/12 06:22:15;;;;;;;;;;;18.40;70.90;;;;;;5106264;28;19915;-74
2022/10/12 06:24:42;;;;;;;;;;;18.40;71.40;;;;;;5101326;28;19912;-75
2022/10/12 06:27:09;;;;;;;;;;;18.40;71.30;;;;;;5111207;28;20010;-75
2022/10/12 06:29:37;;;;;;;;;;;18.40;71.10;;;;;;5109739;27;20361;-73
2022/10/12 06:32:03;;;;;;;;;;;18.40;71.90;;;;;;5109282;28;19993;-75
2022/10/12 06:34:30;;;;;;;;;;;18.40;73.50;;;;;;5111057;28;19912;-74
2022/10/12 06:36:57;;;;;;;;;;;18.40;73.80;;;;;;5111457;28;19916;-74
2022/10/12 06:39:24;;;;;;;;;;;18.40;73.90;;;;;;5103993;28;19951;-73
2022/10/12 06:41:54;;;;;;;;;;;18.30;73.50;;;;;;5108071;28;21350;-74
2022/10/12 06:44:21;;;;;;;;;;;18.30;73.50;;;;;;5110990;28;19911;-75
2022/10/12 06:46:48;;;;;;;;;;;18.30;73.50;;;;;;5110762;28;20026;-74
2022/10/12 06:49:16;;;;;;;;;;;18.30;73.70;;;;;;5105290;28;19947;-74
2022/10/12 06:51:42;;;;;;;;;;;18.30;73.50;;;;;;5104474;28;19919;-73
2022/10/12 06:54:09;;;;;;;;;;;18.30;73.20;;;;;;5111318;28;19951;-73
2022/10/12 06:56:37;;;;;;;;;;;18.30;73.40;;;;;;5110969;28;19912;-75
2022/10/12 06:59:03;;;;;;;;;;;18.30;73.80;;;;;;5106828;28;19920;-74
2022/10/12 07:01:30;;;;;;;;;;;18.30;74.00;;;;;;5102026;28;19958;-73
2022/10/12 07:03:57;;;;;;;;;;;18.20;73.70;;;;;;5106990;28;19947;-73
2022/10/12 07:06:23;;;;;;;;;;;18.20;73.70;;;;;;5111393;28;19912;-73
2022/10/12 07:08:52;;;;;;;;;;;18.20;73.40;;;;;;5111021;27;20318;-73
2022/10/12 07:11:19;;;;;;;;;;;18.20;74.00;;;;;;5110177;28;19912;-73
2022/10/12 07:13:46;;;;;;;;;;;18.20;73.90;;;;;;5109949;28;19912;-73
2022/10/12 07:16:12;;;;;;;;;;;18.20;73.30;;;;;;5109952;28;19919;-73
2022/10/12 07:18:39;;;;;;;;;;;18.20;73.60;;;;;;5110295;28;19926;-73
2022/10/12 07:21:06;;;;;;;;;;;18.20;73.60;;;;;;5109138;28;20296;-73
2022/10/12 07:23:33;;;;;;;;;;;18.20;74.10;;;;;;5108483;28;19921;-74
2022/10/12 07:26:00;;;;;;;;;;;18.10;74.10;;;;;;5110294;28;20266;-73
2022/10/12 07:28:26;;;;;;;;;;;18.20;74.60;;;;;;5110514;28;19911;-73
2022/10/12 07:30:53;;;;;;;;;;;18.10;75.30;;;;;;5108542;28;19915;-74
2022/10/12 07:33:20;;;;;;;;;;;18.10;75.80;;;;;;5107173;28;19907;-74
2022/10/12 07:35:54;;;;;;;;;;;18.10;76.00;;;;;;5110160;28;19912;-74
2022/10/12 07:38:21;;;;;;;;;;;18.10;76.50;;;;;;5108898;28;20381;-73
2022/10/12 07:40:47;;;;;;;;;;;18.00;76.80;;;;;;5106430;28;20070;-73
2022/10/12 07:43:14;;;;;;;;;;;18.00;76.90;;;;;;5113747;27;19961;-73
2022/10/12 07:45:40;;;;;;;;;;;18.00;77.10;;;;;;5109132;28;19911;-74
2022/10/12 07:48:07;;;;;;;;;;;18.00;77.10;;;;;;5112901;27;19922;-73
2022/10/12 07:50:34;;;;;;;;;;;18.00;77.20;;;;;;5108048;28;20361;-72
2022/10/12 07:53:00;;;;;;;;;;;18.00;77.30;;;;;;5109357;28;20002;-72
2022/10/12 07:55:27;;;;;;;;;;;17.90;77.00;;;;;;5108995;28;19908;-73
2022/10/12 07:57:58;;;;;;;;;;;18.00;77.20;;;;;;5107249;28;19954;-73
2022/10/12 08:00:25;;;;;;;;;;;17.90;77.30;;;;;;5109488;28;19916;-72
2022/10/12 08:02:51;;;;;;;;;;;17.90;77.50;;;;;;5110109;28;19908;-72
2022/10/12 08:05:20;;;;;;;;;;;17.90;77.70;;;;;;5109512;28;19912;-73
2022/10/12 08:07:47;;;;;;;;;;;17.80;77.60;;;;;;5106877;28;19915;-72
2022/10/12 08:10:14;;;;;;;;;;;17.90;77.70;;;;;;5107394;28;19915;-75
2022/10/12 08:12:41;;;;;;;;;;;17.90;77.90;;;;;;5109525;28;20420;-75
2022/10/12 08:15:08;;;;;;;;;;;17.80;78.20;;;;;;5109564;28;19937;-74
2022/10/12 08:17:34;;;;;;;;;;;17.80;78.30;;;;;;5109713;28;20364;-74
2022/10/12 08:20:01;;;;;;;;;;;17.80;78.50;;;;;;5108863;28;19923;-75
2022/10/12 08:22:28;;;;;;;;;;;17.80;78.10;;;;;;5107469;28;19916;-74
2022/10/12 08:24:54;;;;;;;;;;;17.80;78.30;;;;;;5087054;28;20022;-74
2022/10/12 08:27:21;;;;;;;;;;;17.80;78.40;;;;;;5106701;28;20358;-74
2022/10/12 08:29:47;;;;;;;;;;;17.80;78.50;;;;;;5116517;27;19927;-72
2022/10/12 08:32:14;;;;;;;;;;;17.80;78.70;;;;;;5140008;27;20432;-72
2022/10/12 08:34:41;;;;;;;;;;;17.80;78.30;;;;;;5135304;27;20292;-72
2022/10/12 08:37:07;;;;;;;;;;;17.80;78.60;;;;;;5118082;28;19911;-72
2022/10/12 08:39:34;;;;;;;;;;;17.80;78.60;;;;;;5119796;27;20361;-72
2022/10/12 08:42:06;;;;;;;;;;;17.70;78.70;;;;;;5112025;28;20362;-72
2022/10/12 08:44:51;;;;;;;;;;;17.80;78.80;;;;;;5112127;28;19934;-72
2022/10/12 08:47:24;;;;;;;;;;;17.80;78.90;;;;;;5142519;27;19912;-72
2022/10/12 08:49:50;;;;;;;;;;;17.80;79.00;;;;;;5111904;27;19915;-72
2022/10/12 08:52:23;;;;;;;;;;;17.80;79.00;;;;;;5126001;27;19959;-72
2022/10/12 08:54:50;;;;;;;;;;;17.70;79.00;;;;;;5134157;27;20370;-72
2022/10/12 08:57:17;;;;;;;;;;;17.70;78.90;;;;;;5101443;27;20290;-72
2022/10/12 08:59:44;;;;;;;;;;;17.70;79.10;;;;;;5128997;27;19965;-72
2022/10/12 09:02:24;;;;;;;;;;;17.70;79.10;;;;;;5142477;27;19930;-75
2022/10/12 09:04:53;;;;;;;;;;;17.70;79.30;;;;;;5116078;27;20361;-72
2022/10/12 09:07:27;;;;;;;;;;;17.70;79.20;;;;;;5116781;27;19941;-72
2022/10/12 09:09:59;;;;;;;;;;;17.70;79.60;;;;;;5125084;27;19912;-76
2022/10/12 09:12:28;;;;;;;;;;;17.70;79.50;;;;;;5101518;28;19919;-74
2022/10/12 09:14:59;;;;;;;;;;;17.70;79.70;;;;;;5109550;27;20396;-74
2022/10/12 09:17:26;;;;;;;;;;;17.70;79.90;;;;;;5112098;27;19919;-75
2022/10/12 09:19:58;;;;;;;;;;;17.70;79.70;;;;;;5123277;27;20003;-75
2022/10/12 09:22:25;;;;;;;;;;;17.70;79.70;;;;;;5109495;27;19922;-75
2022/10/12 09:24:51;;;;;;;;;;;17.70;79.60;;;;;;5115276;27;20644;-74
2022/10/12 09:27:18;;;;;;;;;;;17.70;79.80;;;;;;5143098;27;19915;-75
2022/10/12 09:29:46;;;;;;;;;;;17.70;79.80;;;;;;5127401;27;20416;-74
2022/10/12 09:32:16;;;;;;;;;;;17.70;79.60;;;;;;5094249;28;19919;-75
2022/10/12 09:34:43;;;;;;;;;;;17.70;79.40;;;;;;5129133;27;20546;-75
2022/10/12 09:37:11;;;;;;;;;;;17.70;79.50;;;;;;5129121;27;20290;-74
2022/10/12 09:39:39;;;;;;;;;;;17.70;79.40;;;;;;5093970;28;20294;-77
2022/10/12 09:42:06;;;;;;;;;;;17.70;79.70;;;;;;5115680;27;20103;-72
2022/10/12 09:44:55;;;;;;;;;;;17.70;79.90;;;;;;5125038;27;20389;-73
2022/10/12 09:47:28;;;;;;;;;;;17.70;80.00;;;;;;5049873;27;19916;-73
2022/10/12 09:49:58;;;;;;;;;;;17.60;79.70;;;;;;5126433;27;19916;-72
2022/10/12 09:52:29;;;;;;;;;;;17.60;79.70;;;;;;5127151;27;20400;-71
2022/10/12 09:55:00;;;;;;;;;;;17.60;80.10;;;;;;5105485;27;19915;-72
2022/10/12 09:57:36;;;;;;;;;;;17.60;80.00;;;;;;5122852;27;19912;-72
2022/10/12 10:00:05;;;;;;;;;;;17.60;79.70;;;;;;5105159;27;19907;-73
2022/10/12 10:02:33;;;;;;;;;;;17.50;79.70;;;;;;5117887;27;19938;-74
2022/10/12 10:05:13;;;;;;;;;;;17.50;79.60;;;;;;5109766;27;20536;-76
2022/10/12 10:07:39;;;;;;;;;;;17.60;79.50;;;;;;5104538;28;19923;-76
2022/10/12 10:10:07;;;;;;;;;;;17.60;79.20;;;;;;5124876;27;19915;-75
2022/10/12 10:12:33;;;;;;;;;;;17.60;79.40;;;;;;5107870;27;19915;-75
2022/10/12 10:15:00;;;;;;;;;;;17.60;79.20;;;;;;5106560;27;19937;-75
2022/10/12 10:17:32;;;;;;;;;;;17.60;79.30;;;;;;5122396;27;19961;-77
2022/10/12 10:20:00;;;;;;;;;;;17.50;79.50;;;;;;5106627;27;20003;-75
2022/10/12 10:22:27;;;;;;;;;;;17.60;79.20;;;;;;5102034;27;19923;-77
2022/10/12 10:24:55;;;;;;;;;;;17.60;79.00;;;;;;5117414;27;19916;-75
2022/10/12 11:27:57;;;;;;;;;;;17.50;77.20;;;;;;5121331;27;19976;-73
2022/10/12 11:30:24;;;;;;;;;;;17.50;77.30;;;;;;5125378;27;19959;-73
2022/10/12 11:33:11;;;;;;;;;;;17.50;77.00;;;;;;5132478;27;19912;-73
2022/10/12 11:35:40;;;;;;;;;;;17.40;76.80;;;;;;5132559;27;19918;-73
2022/10/12 11:38:09;;;;;;;;;;;17.50;77.00;;;;;;5123444;27;20360;-73
2022/10/12 11:40:44;;;;;;;;;;;17.40;77.00;;;;;;5142747;27;19907;-73
2022/10/12 11:43:13;;;;;;;;;;;17.40;76.70;;;;;;5115674;27;19955;-73
2022/10/12 11:45:40;;;;;;;;;;;17.40;76.50;;;;;;5126800;27;19976;-73
2022/10/12 11:48:09;;;;;;;;;;;17.40;76.20;;;;;;5136552;27;19912;-73
2022/10/12 11:50:39;;;;;;;;;;;17.40;76.40;;;;;;5119507;27;20390;-73
2022/10/12 11:53:07;;;;;;;;;;;17.40;76.40;;;;;;5113939;28;19912;-73
2022/10/12 11:55:48;;;;;;;;;;;17.40;77.00;;;;;;5137144;27;19964;-73
2022/10/12 11:58:20;;;;;;;;;;;17.40;76.70;;;;;;5129150;27;19915;-73
2022/10/12 12:00:46;;;;;;;;;;;17.40;76.60;;;;;;5119952;28;19911;-73
2022/10/12 12:03:39;;;;;;;;;;;17.40;76.70;;;;;;5137653;27;19933;-73
2022/10/12 12:06:24;;;;;;;;;;;17.40;76.70;;;;;;5079334;27;19919;-72
2022/10/12 12:08:50;;;;;;;;;;;17.40;76.90;;;;;;5139732;27;19915;-72
2022/10/12 12:11:21;;;;;;;;;;;17.40;76.90;;;;;;5126263;28;20028;-73
2022/10/12 12:13:48;;;;;;;;;;;17.40;77.10;;;;;;5132049;27;19915;-72
2022/10/12 12:16:29;;;;;;;;;;;17.40;76.90;;;;;;5128669;27;20361;-73
2022/10/12 12:19:08;;;;;;;;;;;17.40;76.90;;;;;;5145059;27;19919;-73
2022/10/12 12:21:57;;;;;;;;;;;17.40;76.30;;;;;;5132317;27;19912;-73
2022/10/12 12:24:24;;;;;;;;;;;17.40;76.20;;;;;;5118482;27;19936;-73
2022/10/12 20:56:24;;;;;;;;;;;16.30;85.20;;;;;;5105207;28;19936;-78
2022/10/12 20:58:52;;;;;;;;;;;16.30;84.90;;;;;;5078064;28;20381;-78
2022/10/12 21:01:18;;;;;;;;;;;16.30;84.80;;;;;;5109417;28;19908;-79
2022/10/12 21:03:45;;;;;;;;;;;16.40;85.00;;;;;;5079476;28;20362;-79
2022/10/12 21:06:12;;;;;;;;;;;16.40;84.90;;;;;;5091588;28;19912;-79
2022/10/12 21:08:39;;;;;;;;;;;16.50;84.60;;;;;;5098364;28;19978;-80
2022/10/12 21:11:06;;;;;;;;;;;16.50;84.90;;;;;;5079384;28;19913;-80
2022/10/12 21:13:33;;;;;;;;;;;16.60;84.90;;;;;;5109041;28;20392;-80
2022/10/12 21:15:59;;;;;;;;;;;16.70;84.90;;;;;;5089353;28;19912;-79
2022/10/12 21:18:28;;;;;;;;;;;16.70;85.10;;;;;;5093829;28;19912;-80
2022/10/12 21:20:54;;;;;;;;;;;16.80;84.20;;;;;;5102287;28;19915;-80
2022/10/12 21:23:21;;;;;;;;;;;16.80;84.40;;;;;;5107715;28;19919;-80
2022/10/12 21:25:48;;;;;;;;;;;16.90;84.50;;;;;;5083624;28;19912;-80
2022/10/12 21:28:14;;;;;;;;;;;17.00;84.50;;;;;;5092904;28;19912;-80
2022/10/12 21:30:41;;;;;;;;;;;17.10;84.30;;;;;;5076577;28;19912;-80
2022/10/12 21:33:08;;;;;;;;;;;17.20;83.90;;;;;;5076846;28;19908;-78
2022/10/12 21:35:34;;;;;;;;;;;17.20;83.90;;;;;;5094668;28;20015;-78
2022/10/12 21:38:02;;;;;;;;;;;17.30;83.50;;;;;;5094698;28;19908;-78
2022/10/12 21:40:29;;;;;;;;;;;17.40;82.60;;;;;;5094178;28;19955;-78
2022/10/12 21:42:55;;;;;;;;;;;17.50;82.30;;;;;;5059828;28;19912;-78
2022/10/12 21:45:22;;;;;;;;;;;17.50;82.20;;;;;;5076280;28;19954;-78
2022/10/12 21:47:49;;;;;;;;;;;17.60;81.80;;;;;;5076565;28;19915;-78
2022/10/12 21:50:15;;;;;;;;;;;17.70;80.70;;;;;;5101262;28;20382;-78
2022/10/12 21:52:42;;;;;;;;;;;17.70;78.80;;;;;;5115067;28;19908;-78
2022/10/12 21:55:09;;;;;;;;;;;17.80;77.50;;;;;;5124732;27;19926;-78
2022/10/12 21:57:36;;;;;;;;;;;17.90;77.20;;;;;;5135424;27;19912;-78
2022/10/12 22:00:03;;;;;;;;;;;18.10;76.80;;;;;;5134976;27;19915;-80
2022/10/12 22:02:30;;;;;;;;;;;18.30;76.00;;;;;;5116674;27;19932;-80
2022/10/12 22:04:57;;;;;;;;;;;18.40;76.90;;;;;;5134850;27;19908;-80
2022/10/12 22:07:23;;;;;;;;;;;18.50;76.70;;;;;;5116777;27;19908;-78
2022/10/12 22:09:50;;;;;;;;;;;18.70;75.20;;;;;;5135090;27;20265;-79
2022/10/12 22:12:17;;;;;;;;;;;18.80;73.80;;;;;;5135128;27;20373;-77
2022/10/12 22:14:43;;;;;;;;;;;18.90;72.50;;;;;;5135020;27;19911;-78
2022/10/12 22:17:10;;;;;;;;;;;19.00;72.20;;;;;;5134874;27;19915;-78
2022/10/12 22:19:37;;;;;;;;;;;19.20;70.70;;;;;;5116614;27;19923;-79
2022/10/12 22:22:03;;;;;;;;;;;19.20;70.60;;;;;;5134744;27;19992;-78
2022/10/12 22:24:30;;;;;;;;;;;19.20;71.40;;;;;;5134944;27;20376;-78
2022/10/12 22:26:57;;;;;;;;;;;19.30;69.50;;;;;;5134889;27;19999;-78
2022/10/12 22:29:23;;;;;;;;;;;19.50;68.20;;;;;;5134450;27;19938;-78
2022/10/12 22:31:50;;;;;;;;;;;19.50;69.80;;;;;;5116590;27;20380;-79
2022/10/12 22:34:17;;;;;;;;;;;19.60;69.20;;;;;;5134497;27;20006;-78
2022/10/12 22:36:43;;;;;;;;;;;19.60;66.50;;;;;;5134879;27;19908;-79
2022/10/12 22:39:10;;;;;;;;;;;19.40;67.60;;;;;;5098875;27;19959;-78
2022/10/12 22:41:37;;;;;;;;;;;19.40;67.70;;;;;;5116110;27;19907;-77
2022/10/12 22:44:03;;;;;;;;;;;19.40;68.70;;;;;;5134419;27;19998;-79
2022/10/12 22:46:30;;;;;;;;;;;19.30;68.10;;;;;;5134824;27;20002;-79
2022/10/12 22:48:57;;;;;;;;;;;19.30;68.80;;;;;;5134525;27;20337;-79
2022/10/12 22:51:30;;;;;;;;;;;19.50;68.50;;;;;;5115715;27;20281;-77
2022/10/12 22:53:57;;;;;;;;;;;19.60;69.50;;;;;;5116163;27;19908;-78
2022/10/12 22:56:24;;;;;;;;;;;19.70;68.80;;;;;;5133611;27;19964;-79
2022/10/12 22:58:58;;;;;;;;;;;19.70;68.60;;;;;;5115912;27;19923;-78
2022/10/12 23:01:24;;;;;;;;;;;19.70;68.00;;;;;;5116049;27;20319;-79
2022/10/12 23:03:51;;;;;;;;;;;19.80;66.60;;;;;;5116182;27;19946;-79
2022/10/12 23:06:18;;;;;;;;;;;19.80;65.70;;;;;;5115843;27;20003;-79
2022/10/12 23:08:44;;;;;;;;;;;19.80;66.70;;;;;;5115451;27;19914;-79
2022/10/12 23:11:12;;;;;;;;;;;19.80;66.00;;;;;;5133789;27;20320;-79
2022/10/12 23:13:39;;;;;;;;;;;19.80;64.70;;;;;;5115800;27;20041;-81
2022/10/12 23:16:10;;;;;;;;;;;19.80;63.40;;;;;;5115947;27;19958;-79
2022/10/12 23:18:36;;;;;;;;;;;19.90;64.00;;;;;;5133780;27;19911;-79
2022/10/12 23:21:04;;;;;;;;;;;19.90;65.40;;;;;;5115297;27;19914;-79
2022/10/12 23:23:32;;;;;;;;;;;19.90;66.00;;;;;;5115784;27;19908;-79
2022/10/12 23:25:59;;;;;;;;;;;20.00;66.00;;;;;;5115269;27;19953;-77
2022/10/12 23:28:26;;;;;;;;;;;20.00;65.80;;;;;;5133827;27;19908;-79
2022/10/12 23:30:52;;;;;;;;;;;20.00;67.20;;;;;;5133536;27;20377;-79
2022/10/12 23:33:19;;;;;;;;;;;20.00;67.50;;;;;;5133490;27;20349;-79
2022/10/12 23:35:45;;;;;;;;;;;20.00;66.10;;;;;;5098918;27;19912;-78
2022/10/12 23:38:12;;;;;;;;;;;20.10;66.60;;;;;;5115272;27;20002;-79
2022/10/12 23:40:39;;;;;;;;;;;20.00;64.30;;;;;;5133169;27;19922;-79
2022/10/12 23:43:05;;;;;;;;;;;20.00;65.60;;;;;;5133183;27;19915;-79
2022/10/12 23:45:32;;;;;;;;;;;19.90;65.20;;;;;;5133140;27;19923;-79
2022/10/12 23:47:59;;;;;;;;;;;20.00;65.80;;;;;;5133376;27;19935;-79
2022/10/12 23:50:25;;;;;;;;;;;19.90;64.90;;;;;;5133155;27;19981;-79
2022/10/12 23:52:52;;;;;;;;;;;19.90;63.90;;;;;;5133389;27;19907;-78